Time;durP1;ratioP1;P1;durP2;ratioP2;P2;SDS_P1;SDS_P2;PMS_P1;PMS_P2;Temp;Humidity;BMP_temperature;BMP_pressure;BME280_temperature;BME280_humidity;BME280_pressure;Samples;Min_cycle;Max_cycle;Signal;HPM_P1;HPM_P2
2021/03/14 00:00:25;;;;;;;0.73;0.50;;;4.60;99.90;;;;;;5084081;28;20648;-88
2021/03/14 00:02:52;;;;;;;1.97;0.50;;;4.60;99.90;;;;;;5084844;28;20624;-89
2021/03/14 00:05:18;;;;;;;1.67;0.80;;;4.60;99.90;;;;;;5085063;28;21411;-87
2021/03/14 00:07:45;;;;;;;1.37;0.70;;;4.70;99.90;;;;;;5089080;28;20628;-88
2021/03/14 00:10:12;;;;;;;1.23;1.13;;;4.70;99.90;;;;;;5085283;28;20652;-87
2021/03/14 00:12:39;;;;;;;1.40;0.70;;;4.60;99.90;;;;;;5089357;28;20640;-87
2021/03/14 00:15:09;;;;;;;0.70;0.60;;;4.70;99.90;;;;;;5089899;28;21116;-87
2021/03/14 00:17:35;;;;;;;0.57;0.47;;;4.70;99.90;;;;;;5086316;28;20644;-88
2021/03/14 00:20:03;;;;;;;0.80;0.50;;;4.70;99.90;;;;;;5084211;28;20651;-87
2021/03/14 00:22:29;;;;;;;0.90;0.70;;;4.70;99.90;;;;;;5087315;28;20632;-88
2021/03/14 00:24:58;;;;;;;1.20;0.70;;;4.70;99.90;;;;;;5087625;28;20640;-88
2021/03/14 00:27:24;;;;;;;0.60;0.50;;;4.70;99.90;;;;;;5086160;28;20619;-87
2021/03/14 00:29:51;;;;;;;0.90;0.80;;;4.70;99.90;;;;;;5085533;28;20687;-87
2021/03/14 00:32:18;;;;;;;0.90;0.67;;;4.80;99.90;;;;;;5088604;28;20628;-86
2021/03/14 00:34:44;;;;;;;1.80;0.80;;;4.90;99.90;;;;;;5090965;28;20626;-87
2021/03/14 00:37:11;;;;;;;1.07;0.67;;;4.90;99.90;;;;;;5087533;28;20652;-90
2021/03/14 00:39:37;;;;;;;1.70;0.73;;;5.00;99.90;;;;;;5097428;28;20656;-90
2021/03/14 00:42:04;;;;;;;1.00;0.60;;;5.00;99.90;;;;;;5089408;28;20632;-88
2021/03/14 00:44:32;;;;;;;1.00;0.70;;;4.90;99.90;;;;;;5086906;28;20624;-88
2021/03/14 00:46:58;;;;;;;1.50;0.70;;;4.70;99.90;;;;;;5086673;28;20639;-88
2021/03/14 00:49:26;;;;;;;1.23;0.63;;;4.70;99.90;;;;;;5086572;28;20636;-87
2021/03/14 00:51:53;;;;;;;1.17;0.60;;;4.70;99.90;;;;;;5097248;28;20628;-88
2021/03/14 00:54:20;;;;;;;0.50;0.50;;;4.60;99.90;;;;;;5089600;28;20643;-91
2021/03/14 00:56:46;;;;;;;0.80;0.40;;;4.60;99.90;;;;;;5086527;28;20660;-89
2021/03/14 00:59:13;;;;;;;0.90;0.60;;;4.70;99.90;;;;;;5086813;28;20628;-89
2021/03/14 01:01:39;;;;;;;0.67;0.60;;;4.70;99.90;;;;;;5089140;28;20648;-90
2021/03/14 01:04:05;;;;;;;0.50;0.40;;;4.70;99.90;;;;;;5091383;28;20634;-89
2021/03/14 01:06:35;;;;;;;1.00;0.80;;;4.70;99.90;;;;;;5086172;28;20658;-90
2021/03/14 01:09:01;;;;;;;1.67;0.70;;;4.80;99.90;;;;;;5086677;28;20617;-90
2021/03/14 01:11:27;;;;;;;1.10;0.80;;;4.80;99.90;;;;;;5088037;28;20663;-90
2021/03/14 01:13:53;;;;;;;1.10;0.80;;;4.70;99.90;;;;;;5087595;28;20646;-89
2021/03/14 01:16:20;;;;;;;3.13;0.67;;;4.60;99.90;;;;;;5088667;28;20625;-89
2021/03/14 01:18:46;;;;;;;1.53;0.50;;;4.60;99.90;;;;;;5087039;28;20656;-89
2021/03/14 01:21:13;;;;;;;0.77;0.47;;;4.70;99.90;;;;;;5087161;28;20667;-89
2021/03/14 01:23:40;;;;;;;1.00;0.70;;;4.60;99.90;;;;;;5085918;28;20667;-91
2021/03/14 01:26:07;;;;;;;0.67;0.50;;;4.50;99.90;;;;;;5090574;28;20654;-89
2021/03/14 01:28:33;;;;;;;0.50;0.40;;;4.60;99.90;;;;;;5081344;28;20624;-89
2021/03/14 01:31:00;;;;;;;0.50;0.47;;;4.60;99.90;;;;;;5098960;28;20677;-89
2021/03/14 01:33:27;;;;;;;0.50;0.40;;;4.60;99.90;;;;;;5085006;28;20751;-88
2021/03/14 01:35:53;;;;;;;1.13;0.30;;;4.70;99.90;;;;;;5086305;28;20623;-87
2021/03/14 01:38:19;;;;;;;0.60;0.40;;;4.60;99.90;;;;;;5087166;28;20671;-89
2021/03/14 01:40:47;;;;;;;0.63;0.43;;;4.50;99.90;;;;;;5084059;28;20620;-89
2021/03/14 01:43:13;;;;;;;0.50;0.30;;;4.60;99.90;;;;;;5086523;28;20948;-89
2021/03/14 01:45:40;;;;;;;0.50;0.47;;;4.50;99.90;;;;;;5082819;28;20703;-89
2021/03/14 01:48:07;;;;;;;0.50;0.30;;;4.50;99.90;;;;;;5085120;28;21074;-89
2021/03/14 01:50:35;;;;;;;0.50;0.30;;;4.50;99.90;;;;;;5091418;28;21193;-89
2021/03/14 01:53:02;;;;;;;0.57;0.30;;;4.50;99.90;;;;;;5090838;28;20816;-89
2021/03/14 01:55:28;;;;;;;0.63;0.40;;;4.60;99.90;;;;;;5090772;28;21115;-89
2021/03/14 01:57:56;;;;;;;1.10;0.40;;;4.50;99.90;;;;;;5090801;28;20678;-89
2021/03/14 02:00:25;;;;;;;0.40;0.30;;;4.50;99.90;;;;;;5092041;28;20927;-89
2021/03/14 02:02:51;;;;;;;0.60;0.40;;;4.40;99.90;;;;;;5091685;28;20620;-89
2021/03/14 02:05:19;;;;;;;0.50;0.40;;;4.40;99.90;;;;;;5090807;28;21162;-88
2021/03/14 02:07:48;;;;;;;0.50;0.33;;;4.50;99.90;;;;;;5090212;28;21178;-89
2021/03/14 02:10:18;;;;;;;0.50;0.40;;;4.40;99.90;;;;;;5092861;28;21013;-88
2021/03/14 02:12:48;;;;;;;0.70;0.40;;;4.50;99.90;;;;;;5089458;28;20628;-88
2021/03/14 02:15:16;;;;;;;0.50;0.40;;;4.50;99.90;;;;;;5089054;28;20681;-89
2021/03/14 02:17:44;;;;;;;0.40;0.30;;;4.50;99.90;;;;;;5091061;28;20713;-89
2021/03/14 02:20:13;;;;;;;1.03;0.33;;;4.50;99.90;;;;;;5089859;28;20654;-89
2021/03/14 02:22:42;;;;;;;0.80;0.50;;;4.40;99.90;;;;;;5091823;28;20627;-89
2021/03/14 02:25:14;;;;;;;0.60;0.60;;;4.50;99.90;;;;;;5093527;28;20638;-89
2021/03/14 02:27:43;;;;;;;0.40;0.30;;;4.30;99.90;;;;;;5092396;28;20623;-87
2021/03/14 02:30:12;;;;;;;0.60;0.50;;;4.40;99.90;;;;;;5097078;28;20693;-87
2021/03/14 02:32:40;;;;;;;0.40;0.30;;;4.30;99.90;;;;;;5090946;28;20640;-87
2021/03/14 02:35:08;;;;;;;1.93;0.57;;;4.30;99.90;;;;;;5090330;28;20632;-87
2021/03/14 02:37:36;;;;;;;0.60;0.60;;;4.20;99.90;;;;;;5084415;28;20704;-86
2021/03/14 02:40:03;;;;;;;0.67;0.30;;;4.30;99.90;;;;;;5089750;28;21198;-88
2021/03/14 02:42:30;;;;;;;0.47;0.30;;;4.30;99.90;;;;;;5089457;28;20635;-87
2021/03/14 02:44:59;;;;;;;2.10;0.50;;;4.30;99.90;;;;;;5085365;28;20624;-87
2021/03/14 02:47:27;;;;;;;0.50;0.40;;;4.30;99.90;;;;;;5088490;28;20616;-88
2021/03/14 02:49:54;;;;;;;0.50;0.40;;;4.20;99.90;;;;;;5088231;28;20886;-88
2021/03/14 02:52:22;;;;;;;0.63;0.40;;;4.20;99.90;;;;;;5087396;28;20628;-88
2021/03/14 02:54:50;;;;;;;1.80;0.60;;;4.20;99.90;;;;;;5085544;28;20658;-87
2021/03/14 02:57:20;;;;;;;1.67;0.70;;;4.20;99.90;;;;;;5087793;28;20675;-87
2021/03/14 02:59:48;;;;;;;0.87;0.77;;;4.20;99.90;;;;;;5088249;28;20656;-87
2021/03/14 03:02:16;;;;;;;0.83;0.57;;;4.10;99.90;;;;;;5087429;28;20632;-87
2021/03/14 03:04:43;;;;;;;0.60;0.60;;;4.20;99.90;;;;;;5088343;28;21638;-89
2021/03/14 03:07:10;;;;;;;0.60;0.50;;;4.30;99.90;;;;;;5089003;28;20624;-89
2021/03/14 03:09:37;;;;;;;0.90;0.70;;;4.20;99.90;;;;;;5087759;28;21009;-90
2021/03/14 03:12:04;;;;;;;0.70;0.60;;;4.20;99.90;;;;;;5102783;28;20612;-90
2021/03/14 03:14:33;;;;;;;1.83;0.87;;;4.20;99.90;;;;;;5090475;28;20826;-90
2021/03/14 03:17:00;;;;;;;0.97;0.70;;;4.20;99.90;;;;;;5095626;28;20640;-89
2021/03/14 03:19:29;;;;;;;1.30;0.73;;;4.20;99.90;;;;;;5092240;28;21206;-90
2021/03/14 03:21:55;;;;;;;0.60;0.50;;;4.30;99.90;;;;;;5091830;28;20612;-90
2021/03/14 03:24:21;;;;;;;1.10;0.70;;;4.30;99.90;;;;;;5086701;28;21139;-90
2021/03/14 03:26:48;;;;;;;1.73;0.60;;;4.20;99.90;;;;;;5089739;28;20628;-90
2021/03/14 03:29:16;;;;;;;1.30;0.70;;;4.10;99.90;;;;;;5082944;28;20662;-89
2021/03/14 03:31:44;;;;;;;1.33;1.23;;;4.00;99.90;;;;;;5088980;28;20741;-88
2021/03/14 03:34:10;;;;;;;2.50;0.50;;;4.10;99.90;;;;;;5087460;28;21181;-90
2021/03/14 03:36:38;;;;;;;1.23;0.50;;;4.10;99.90;;;;;;5089486;28;20624;-89
2021/03/14 03:39:07;;;;;;;1.40;0.50;;;4.00;99.90;;;;;;5088100;28;20644;-89
2021/03/14 03:41:36;;;;;;;0.63;0.63;;;4.00;99.90;;;;;;5083255;28;20632;-89
2021/03/14 03:44:04;;;;;;;1.27;0.50;;;4.10;99.90;;;;;;5088788;28;20618;-89
2021/03/14 03:46:32;;;;;;;0.57;0.50;;;4.10;99.90;;;;;;5103727;28;20632;-90
2021/03/14 03:48:58;;;;;;;0.50;0.50;;;4.20;99.90;;;;;;5092588;28;20598;-88
2021/03/14 03:51:27;;;;;;;0.90;0.60;;;4.20;99.90;;;;;;5089335;28;20660;-89
2021/03/14 03:53:56;;;;;;;1.17;0.70;;;4.20;99.90;;;;;;5087400;28;20981;-88
2021/03/14 03:56:24;;;;;;;2.20;0.70;;;4.20;99.90;;;;;;5088454;28;20656;-88
2021/03/14 03:58:52;;;;;;;0.63;0.50;;;4.20;99.90;;;;;;5084246;28;20722;-90
2021/03/14 04:01:19;;;;;;;0.80;0.43;;;4.20;99.90;;;;;;5086120;28;21191;-87
2021/03/14 04:03:47;;;;;;;1.23;1.00;;;4.20;99.90;;;;;;5083625;28;20714;-89
2021/03/14 04:06:15;;;;;;;2.50;2.30;;;4.20;99.90;;;;;;5084542;28;20664;-88
2021/03/14 04:08:43;;;;;;;1.20;0.83;;;4.20;99.90;;;;;;5088371;28;20686;-88
2021/03/14 04:11:15;;;;;;;0.70;0.70;;;4.20;99.90;;;;;;5086721;28;20628;-88
2021/03/14 04:13:43;;;;;;;2.77;1.67;;;4.20;99.90;;;;;;5087465;28;20620;-88
2021/03/14 04:16:12;;;;;;;1.00;0.90;;;4.30;99.90;;;;;;5088911;28;21005;-88
2021/03/14 04:18:39;;;;;;;1.03;0.60;;;4.40;99.90;;;;;;5092089;28;20733;-88
2021/03/14 04:21:08;;;;;;;0.80;0.80;;;4.30;99.90;;;;;;5088990;28;20633;-89
2021/03/14 04:23:39;;;;;;;0.83;0.83;;;4.20;99.90;;;;;;5095290;28;21147;-89
2021/03/14 04:26:06;;;;;;;1.97;0.53;;;4.10;99.90;;;;;;5088852;28;20657;-89
2021/03/14 04:28:38;;;;;;;2.87;0.90;;;4.10;99.90;;;;;;5086180;28;20628;-88
2021/03/14 04:31:05;;;;;;;0.53;0.50;;;4.00;99.90;;;;;;5088230;28;20635;-89
2021/03/14 04:33:33;;;;;;;0.67;0.67;;;4.00;99.90;;;;;;5087909;28;21159;-88
2021/03/14 04:36:00;;;;;;;0.60;0.57;;;3.90;99.90;;;;;;5084332;28;21030;-88
2021/03/14 04:38:27;;;;;;;0.93;0.83;;;3.80;99.90;;;;;;5094002;28;20664;-89
2021/03/14 04:40:55;;;;;;;0.97;0.60;;;3.80;99.90;;;;;;5091971;28;20617;-89
2021/03/14 04:43:22;;;;;;;1.30;0.70;;;3.80;99.90;;;;;;5097206;28;20612;-90
2021/03/14 04:45:50;;;;;;;0.93;0.50;;;3.90;99.90;;;;;;5093186;28;20664;-88
2021/03/14 04:48:17;;;;;;;0.80;0.60;;;3.90;99.90;;;;;;5094178;28;20624;-89
2021/03/14 04:50:45;;;;;;;0.80;0.80;;;3.90;99.90;;;;;;5095228;28;21749;-89
2021/03/14 04:53:13;;;;;;;0.83;0.67;;;4.00;99.90;;;;;;5096396;28;20940;-89
2021/03/14 04:55:42;;;;;;;1.27;0.60;;;4.00;99.90;;;;;;5091561;28;20659;-88
2021/03/14 04:58:11;;;;;;;0.80;0.80;;;4.00;99.90;;;;;;5088271;28;21065;-90
2021/03/14 05:00:39;;;;;;;0.80;0.80;;;4.00;99.90;;;;;;5092200;28;20624;-89
2021/03/14 05:03:10;;;;;;;0.97;0.70;;;4.00;99.90;;;;;;5099959;28;20899;-89
2021/03/14 05:05:39;;;;;;;0.77;0.70;;;3.90;99.90;;;;;;5099949;28;20724;-89
2021/03/14 05:08:07;;;;;;;1.07;0.80;;;3.90;99.90;;;;;;5100932;28;20618;-89
2021/03/14 05:10:34;;;;;;;1.20;1.13;;;4.00;99.90;;;;;;5100432;28;20628;-89
2021/03/14 05:13:01;;;;;;;0.90;0.80;;;3.90;99.90;;;;;;5100513;28;20658;-89
2021/03/14 05:15:28;;;;;;;0.73;0.73;;;3.90;99.90;;;;;;5099435;28;20667;-89
2021/03/14 05:17:55;;;;;;;1.17;0.83;;;3.90;99.90;;;;;;5108971;28;20985;-88
2021/03/14 05:20:23;;;;;;;1.23;1.00;;;3.90;99.90;;;;;;5097307;28;20632;-89
2021/03/14 05:22:51;;;;;;;2.00;0.80;;;3.90;99.90;;;;;;5102389;28;20671;-90
2021/03/14 05:25:19;;;;;;;1.53;0.70;;;3.90;99.90;;;;;;5099323;28;20639;-90
2021/03/14 05:27:49;;;;;;;1.27;0.63;;;3.80;99.90;;;;;;5104757;28;20630;-89
2021/03/14 05:30:19;;;;;;;1.37;0.73;;;3.80;99.90;;;;;;5100482;28;20646;-89
2021/03/14 05:32:45;;;;;;;1.43;1.00;;;3.90;99.90;;;;;;5102711;28;20646;-89
2021/03/14 05:35:12;;;;;;;1.23;0.80;;;3.80;99.90;;;;;;5099165;28;20659;-89
2021/03/14 05:37:40;;;;;;;1.30;1.00;;;3.80;99.90;;;;;;5101267;28;20685;-90
2021/03/14 05:40:07;;;;;;;2.53;0.73;;;3.80;99.90;;;;;;5093072;28;20624;-90
2021/03/14 05:42:34;;;;;;;0.80;0.70;;;3.80;99.90;;;;;;5088589;28;20671;-88
2021/03/14 05:45:00;;;;;;;1.90;0.60;;;3.80;99.90;;;;;;5099999;28;20652;-89
2021/03/14 05:47:27;;;;;;;1.30;0.60;;;3.80;99.90;;;;;;5092988;28;20628;-89
2021/03/14 05:49:53;;;;;;;1.80;0.97;;;3.80;99.90;;;;;;5089757;28;20719;-90
2021/03/14 05:52:20;;;;;;;1.53;0.53;;;3.70;99.90;;;;;;5094011;28;20980;-91
2021/03/14 05:54:52;;;;;;;1.00;0.70;;;3.80;99.90;;;;;;5096284;28;20694;-87
2021/03/14 05:57:19;;;;;;;1.23;0.93;;;3.80;99.90;;;;;;5101489;28;20626;-89
2021/03/14 05:59:50;;;;;;;1.97;1.00;;;3.80;99.90;;;;;;5107492;28;20620;-88
2021/03/14 06:02:18;;;;;;;2.10;0.70;;;3.80;99.90;;;;;;5091493;28;20640;-89
2021/03/14 06:04:45;;;;;;;1.13;1.00;;;3.80;99.90;;;;;;5091826;28;20953;-87
2021/03/14 06:07:12;;;;;;;2.10;0.93;;;3.80;99.90;;;;;;5089904;28;21022;-89
2021/03/14 06:09:38;;;;;;;4.23;1.23;;;3.90;99.90;;;;;;5091765;28;20650;-87
2021/03/14 06:12:10;;;;;;;1.20;1.10;;;4.00;99.90;;;;;;5090015;28;21096;-88
2021/03/14 06:14:36;;;;;;;1.20;1.10;;;4.00;99.90;;;;;;5088263;28;21098;-89
2021/03/14 06:17:02;;;;;;;2.10;1.10;;;4.00;99.90;;;;;;5089619;28;20651;-89
2021/03/14 06:19:30;;;;;;;3.13;0.93;;;4.10;99.90;;;;;;5089954;28;21106;-87
2021/03/14 06:22:18;;;;;;;3.73;1.27;;;4.10;99.90;;;;;;5095672;28;21213;-89
2021/03/14 06:24:44;;;;;;;2.90;1.13;;;4.10;99.90;;;;;;5087278;28;21140;-88
2021/03/14 06:27:12;;;;;;;2.60;1.20;;;4.20;99.90;;;;;;5097626;28;20641;-88
2021/03/14 06:29:40;;;;;;;2.80;1.10;;;4.10;99.90;;;;;;5091407;28;21247;-87
2021/03/14 06:32:07;;;;;;;1.33;0.97;;;4.20;99.90;;;;;;5089568;28;20665;-89
2021/03/14 06:34:35;;;;;;;2.03;1.33;;;4.20;99.90;;;;;;5092539;28;20627;-90
2021/03/14 06:37:11;;;;;;;5.63;2.10;;;4.20;99.90;;;;;;5088035;28;20682;-91
2021/03/14 06:39:39;;;;;;;2.13;1.20;;;4.30;99.90;;;;;;5090172;28;20700;-90
2021/03/14 06:42:06;;;;;;;1.63;1.17;;;4.40;99.90;;;;;;5092025;28;20642;-90
2021/03/14 06:44:36;;;;;;;2.10;1.13;;;4.40;99.90;;;;;;5086910;28;20632;-88
2021/03/14 06:47:05;;;;;;;3.40;1.43;;;4.30;99.90;;;;;;5087390;28;20651;-87
2021/03/14 06:49:36;;;;;;;1.63;1.10;;;4.40;99.90;;;;;;5085437;28;20589;-88
2021/03/14 06:52:03;;;;;;;2.27;1.47;;;4.50;99.90;;;;;;5089691;28;20620;-87
2021/03/14 06:54:34;;;;;;;2.73;1.50;;;4.50;99.90;;;;;;5090312;28;20601;-87
2021/03/14 06:57:03;;;;;;;3.10;1.40;;;4.60;99.90;;;;;;5087854;28;20967;-89
2021/03/14 06:59:30;;;;;;;1.77;1.07;;;4.50;99.90;;;;;;5089335;28;21002;-87
2021/03/14 07:02:00;;;;;;;1.33;1.23;;;4.50;99.90;;;;;;5086859;28;20677;-89
2021/03/14 07:04:48;;;;;;;3.90;1.20;;;4.50;99.90;;;;;;5090566;28;20636;-89
2021/03/14 07:07:28;;;;;;;4.00;1.40;;;4.50;99.90;;;;;;5081127;28;20680;-88
2021/03/14 07:09:59;;;;;;;4.23;1.37;;;4.60;99.90;;;;;;5093591;28;20695;-88
2021/03/14 07:12:31;;;;;;;3.00;1.20;;;4.60;99.90;;;;;;5094381;28;20684;-87
2021/03/14 07:15:12;;;;;;;3.97;1.20;;;4.60;99.90;;;;;;5095731;28;20618;-88
2021/03/14 07:17:42;;;;;;;2.93;1.13;;;4.60;99.90;;;;;;5088651;28;20674;-87
2021/03/14 07:20:11;;;;;;;2.30;1.23;;;4.60;99.90;;;;;;5092066;28;20697;-89
2021/03/14 07:22:38;;;;;;;1.33;0.97;;;4.70;99.90;;;;;;5094630;28;20644;-88
2021/03/14 07:25:07;;;;;;;4.50;1.90;;;4.80;99.90;;;;;;5095082;28;20625;-89
2021/03/14 07:27:34;;;;;;;4.40;1.63;;;4.90;99.90;;;;;;5089892;28;20628;-88
2021/03/14 07:30:01;;;;;;;3.10;1.70;;;5.00;99.90;;;;;;5086989;28;20611;-88
2021/03/14 07:32:28;;;;;;;11.37;2.70;;;5.10;99.90;;;;;;5085860;28;20647;-89
2021/03/14 07:34:58;;;;;;;2.40;1.20;;;5.10;99.90;;;;;;5094401;28;20698;-90
2021/03/14 07:37:25;;;;;;;2.20;1.03;;;5.10;99.90;;;;;;5091757;28;20708;-88
2021/03/14 07:39:55;;;;;;;4.97;2.20;;;4.90;99.90;;;;;;5084901;28;20633;-90
2021/03/14 07:42:23;;;;;;;3.20;1.17;;;5.10;99.90;;;;;;5089803;28;20636;-89
2021/03/14 07:44:50;;;;;;;1.13;0.90;;;5.20;99.90;;;;;;5088043;28;20620;-91
2021/03/14 07:47:17;;;;;;;3.03;1.77;;;5.30;99.90;;;;;;5091630;28;20666;-90
2021/03/14 07:49:48;;;;;;;3.23;1.20;;;5.60;99.90;;;;;;5089083;28;20726;-90
2021/03/14 07:52:22;;;;;;;2.93;1.57;;;5.70;99.90;;;;;;5088596;28;20631;-89
2021/03/14 07:54:52;;;;;;;2.10;1.60;;;5.80;99.90;;;;;;5087809;28;20600;-92
2021/03/14 07:57:23;;;;;;;3.27;1.20;;;5.70;99.90;;;;;;5092095;28;20640;-89
2021/03/14 07:59:52;;;;;;;3.63;2.30;;;5.90;99.90;;;;;;5090476;28;20648;-90
2021/03/14 08:02:25;;;;;;;3.33;1.70;;;6.10;99.90;;;;;;5095827;28;20637;-89
2021/03/14 08:04:53;;;;;;;2.87;1.53;;;6.00;99.90;;;;;;5088831;28;20624;-90
2021/03/14 08:07:42;;;;;;;4.30;1.50;;;5.70;99.90;;;;;;5088980;28;20651;-91
2021/03/14 08:10:10;;;;;;;2.40;1.40;;;5.70;99.90;;;;;;5090202;28;20624;-91
2021/03/14 08:12:38;;;;;;;2.43;1.30;;;5.60;99.90;;;;;;5091560;28;20734;-89
2021/03/14 08:15:21;;;;;;;2.00;1.07;;;5.60;99.90;;;;;;5100211;28;20643;-90
2021/03/14 08:17:47;;;;;;;5.80;2.07;;;5.60;99.90;;;;;;5100250;28;20671;-89
2021/03/14 08:20:14;;;;;;;3.40;1.57;;;5.60;99.90;;;;;;5099088;28;20624;-89
2021/03/14 08:22:48;;;;;;;3.67;1.60;;;5.60;99.90;;;;;;5096625;28;20613;-90
2021/03/14 08:25:21;;;;;;;2.27;1.23;;;5.60;99.90;;;;;;5095863;28;20699;-90
2021/03/14 08:27:48;;;;;;;4.10;1.97;;;5.60;99.90;;;;;;5087576;28;20666;-90
2021/03/14 08:30:45;;;;;;;5.13;1.60;;;5.90;99.90;;;;;;5091053;28;20673;-91
2021/03/14 08:33:32;;;;;;;4.87;2.13;;;6.10;99.90;;;;;;5085030;28;20612;-88
2021/03/14 08:36:01;;;;;;;5.87;1.50;;;6.20;99.90;;;;;;5085305;28;20620;-86
2021/03/14 08:38:32;;;;;;;5.73;2.30;;;6.10;99.90;;;;;;5086410;28;20684;-88
2021/03/14 08:41:18;;;;;;;2.80;1.23;;;6.10;99.90;;;;;;5088165;28;21019;-88
2021/03/14 08:43:46;;;;;;;4.07;1.60;;;6.00;99.90;;;;;;5086604;28;20612;-89
2021/03/14 08:46:13;;;;;;;2.43;1.70;;;6.10;99.90;;;;;;5086692;28;20631;-87
2021/03/14 08:48:39;;;;;;;2.10;1.20;;;6.10;99.90;;;;;;5086841;28;20655;-89
2021/03/14 08:51:07;;;;;;;1.60;1.30;;;6.00;99.90;;;;;;5088221;28;21357;-88
2021/03/14 08:53:34;;;;;;;4.47;1.67;;;6.30;99.90;;;;;;5087670;28;20628;-89
2021/03/14 08:56:01;;;;;;;2.60;1.60;;;6.40;99.90;;;;;;5088344;28;20667;-89
2021/03/14 08:58:27;;;;;;;5.77;1.40;;;6.50;99.90;;;;;;5086872;28;20679;-88
2021/03/14 09:01:08;;;;;;;2.50;1.10;;;6.50;99.90;;;;;;5088526;28;20632;-89
2021/03/14 09:03:41;;;;;;;5.30;1.67;;;6.30;99.90;;;;;;5083339;28;20627;-89
2021/03/14 09:06:25;;;;;;;3.77;1.40;;;6.30;99.90;;;;;;5087982;28;20656;-91
2021/03/14 09:08:55;;;;;;;2.60;1.67;;;6.30;99.90;;;;;;5088859;28;20850;-88
2021/03/14 09:11:39;;;;;;;3.30;1.50;;;6.50;99.90;;;;;;5089999;28;20624;-90
2021/03/14 09:14:23;;;;;;;2.70;1.10;;;6.30;99.90;;;;;;5101745;28;20589;-89
2021/03/14 09:16:51;;;;;;;2.60;1.17;;;6.30;99.90;;;;;;5104455;28;20565;-91
2021/03/14 09:19:26;;;;;;;3.50;2.10;;;6.20;99.90;;;;;;5088052;28;20732;-87
2021/03/14 09:21:53;;;;;;;3.27;1.67;;;6.30;99.90;;;;;;5089078;28;21223;-89
2021/03/14 09:24:45;;;;;;;2.27;1.67;;;6.60;99.90;;;;;;5091855;28;20643;-88
2021/03/14 09:27:18;;;;;;;2.50;1.30;;;6.60;99.90;;;;;;5085343;28;20674;-88
2021/03/14 09:29:49;;;;;;;2.67;1.10;;;6.60;99.90;;;;;;5089899;28;20620;-89
2021/03/14 09:32:21;;;;;;;1.67;1.17;;;6.80;99.90;;;;;;5088587;28;20628;-89
2021/03/14 09:34:49;;;;;;;3.17;1.37;;;6.70;99.90;;;;;;5088865;28;20616;-90
2021/03/14 09:37:30;;;;;;;5.27;1.10;;;7.00;99.90;;;;;;5087960;28;21214;-88
2021/03/14 09:40:16;;;;;;;2.10;1.37;;;6.80;99.90;;;;;;5084770;28;20612;-91
2021/03/14 09:42:46;;;;;;;3.73;1.10;;;7.10;99.90;;;;;;5087337;28;20658;-88
2021/03/14 09:45:14;;;;;;;4.00;1.03;;;7.00;99.90;;;;;;5084081;28;20635;-88
2021/03/14 09:48:10;;;;;;;2.13;1.23;;;7.10;99.90;;;;;;5096466;28;20978;-90
2021/03/14 09:50:41;;;;;;;4.20;1.40;;;6.90;99.90;;;;;;5088259;28;20612;-88
2021/03/14 09:53:08;;;;;;;4.33;1.50;;;7.20;99.90;;;;;;5089187;28;20657;-88
2021/03/14 09:55:37;;;;;;;2.50;0.93;;;7.80;99.20;;;;;;5088310;28;20643;-87
2021/03/14 09:58:08;;;;;;;2.00;1.03;;;8.20;98.50;;;;;;5088710;28;20767;-89
2021/03/14 10:00:34;;;;;;;5.50;1.20;;;8.30;98.30;;;;;;5080332;28;20649;-89
2021/03/14 10:03:03;;;;;;;2.27;1.30;;;8.00;98.50;;;;;;5087259;28;20735;-88
2021/03/14 10:05:39;;;;;;;1.47;0.97;;;8.20;97.90;;;;;;5087304;28;21250;-88
2021/03/14 10:08:07;;;;;;;5.47;1.17;;;7.60;98.90;;;;;;5082672;28;20682;-90
2021/03/14 10:10:37;;;;;;;3.83;1.90;;;7.40;99.10;;;;;;5086625;28;20993;-89
2021/03/14 10:13:06;;;;;;;1.80;0.80;;;7.30;97.90;;;;;;5091751;28;20685;-87
2021/03/14 10:15:33;;;;;;;2.20;0.90;;;7.20;98.80;;;;;;5087939;28;20815;-88
2021/03/14 10:18:00;;;;;;;1.70;1.27;;;7.10;99.90;;;;;;5088725;28;20706;-87
2021/03/14 10:20:26;;;;;;;2.90;1.20;;;7.20;99.90;;;;;;5089760;28;20677;-88
2021/03/14 10:23:00;;;;;;;1.67;0.90;;;7.30;99.90;;;;;;5087636;28;20632;-88
2021/03/14 10:25:29;;;;;;;1.53;0.87;;;7.40;99.60;;;;;;5090630;28;21207;-88
2021/03/14 10:28:12;;;;;;;1.33;0.70;;;7.20;99.40;;;;;;5084703;28;20678;-88
2021/03/14 10:30:42;;;;;;;2.73;1.57;;;6.90;99.90;;;;;;5083994;28;21208;-89
2021/03/14 10:33:10;;;;;;;1.10;1.00;;;6.90;99.90;;;;;;5091376;28;20632;-89
2021/03/14 10:35:37;;;;;;;3.73;1.23;;;6.70;99.90;;;;;;5094278;28;20629;-88
2021/03/14 10:38:17;;;;;;;2.53;1.10;;;6.80;99.90;;;;;;5092344;28;20672;-89
2021/03/14 10:40:43;;;;;;;2.40;1.20;;;6.90;99.90;;;;;;5091408;28;20640;-88
2021/03/14 10:43:22;;;;;;;1.50;1.00;;;7.30;99.90;;;;;;5084415;28;20635;-89
2021/03/14 10:45:48;;;;;;;2.47;1.03;;;8.00;99.90;;;;;;5089513;28;20634;-89
2021/03/14 10:48:15;;;;;;;1.20;0.90;;;8.30;99.90;;;;;;5085486;28;21300;-89
2021/03/14 10:50:41;;;;;;;2.27;1.00;;;8.50;99.90;;;;;;5088196;28;20628;-90
2021/03/14 10:53:09;;;;;;;2.23;1.03;;;8.90;98.00;;;;;;5087725;28;20628;-93
2021/03/14 10:55:37;;;;;;;2.20;0.90;;;8.90;97.70;;;;;;5090839;28;20647;-91
2021/03/14 10:58:09;;;;;;;3.97;1.10;;;8.80;96.00;;;;;;5088520;28;20664;-91
2021/03/14 11:00:54;;;;;;;2.20;1.00;;;8.60;97.20;;;;;;5095076;28;21063;-90
2021/03/14 11:03:28;;;;;;;3.63;0.77;;;8.30;96.90;;;;;;5098681;28;20654;-90
2021/03/14 11:06:11;;;;;;;2.20;1.10;;;8.10;96.80;;;;;;5094933;28;20661;-90
2021/03/14 11:08:56;;;;;;;3.27;1.20;;;8.50;96.90;;;;;;5097897;28;20687;-90
2021/03/14 11:11:26;;;;;;;1.87;0.80;;;8.70;96.00;;;;;;5096532;28;20628;-89
2021/03/14 11:13:55;;;;;;;2.70;1.10;;;8.40;95.30;;;;;;5095375;28;20628;-89
2021/03/14 11:16:26;;;;;;;5.00;1.77;;;8.30;96.00;;;;;;5090748;28;21006;-90
2021/03/14 11:19:02;;;;;;;3.80;1.93;;;8.80;95.50;;;;;;5085176;28;20655;-90
2021/03/14 11:21:29;;;;;;;4.67;1.47;;;9.10;94.00;;;;;;5086389;28;20631;-90
2021/03/14 11:23:56;;;;;;;5.00;1.00;;;8.80;94.40;;;;;;5091858;28;20620;-90
2021/03/14 11:26:22;;;;;;;2.40;1.10;;;8.30;93.50;;;;;;5092960;28;20612;-89
2021/03/14 11:28:49;;;;;;;1.03;0.83;;;7.80;95.30;;;;;;5088511;28;20710;-91
2021/03/14 11:31:15;;;;;;;2.37;1.70;;;7.90;96.20;;;;;;5090225;28;21079;-90
2021/03/14 11:33:43;;;;;;;2.47;1.37;;;7.80;95.90;;;;;;5091644;28;20617;-90
2021/03/14 11:36:09;;;;;;;2.17;1.53;;;7.80;96.00;;;;;;5090277;28;20638;-91
2021/03/14 11:38:35;;;;;;;1.07;0.97;;;7.80;96.10;;;;;;5090036;28;20668;-89
2021/03/14 11:41:02;;;;;;;2.10;1.37;;;7.80;96.00;;;;;;5088540;28;20624;-90
2021/03/14 11:43:28;;;;;;;2.93;0.90;;;7.90;96.30;;;;;;5090420;28;20634;-90
2021/03/14 11:45:54;;;;;;;3.17;0.90;;;8.00;96.30;;;;;;5088215;28;20704;-90
2021/03/14 11:48:21;;;;;;;1.17;0.83;;;8.10;95.40;;;;;;5088999;28;20656;-89
2021/03/14 11:50:48;;;;;;;1.87;0.87;;;8.30;93.60;;;;;;5089690;28;20635;-91
2021/03/14 11:53:14;;;;;;;1.90;1.10;;;8.70;93.40;;;;;;5089815;28;21019;-90
2021/03/14 11:55:41;;;;;;;2.63;0.90;;;8.70;93.10;;;;;;5088243;28;20707;-90
2021/03/14 11:58:08;;;;;;;3.40;1.13;;;8.40;92.60;;;;;;5091837;28;21262;-89
2021/03/14 12:00:41;;;;;;;3.90;1.47;;;8.40;92.30;;;;;;5094449;28;20631;-91
2021/03/14 12:03:07;;;;;;;2.10;1.30;;;8.20;92.80;;;;;;5089418;28;20620;-89
2021/03/14 12:05:33;;;;;;;2.40;1.20;;;8.30;93.40;;;;;;5088791;28;21037;-91
2021/03/14 12:08:01;;;;;;;2.60;1.60;;;8.30;93.10;;;;;;5089081;28;20655;-89
2021/03/14 12:10:27;;;;;;;3.20;1.00;;;8.30;93.20;;;;;;5088714;28;20628;-90
2021/03/14 12:12:53;;;;;;;3.30;1.50;;;8.30;93.40;;;;;;5088268;28;20634;-90
2021/03/14 12:15:20;;;;;;;3.97;1.10;;;8.40;93.90;;;;;;5087347;28;20620;-90
2021/03/14 12:17:46;;;;;;;2.97;2.10;;;8.20;93.50;;;;;;5083931;28;20649;-90
2021/03/14 12:20:14;;;;;;;3.03;1.00;;;8.20;93.90;;;;;;5087665;28;20636;-89
2021/03/14 12:22:40;;;;;;;6.13;1.00;;;8.30;94.00;;;;;;5087264;28;21039;-90
2021/03/14 12:25:08;;;;;;;3.80;1.00;;;8.10;93.80;;;;;;5089613;28;21135;-89
2021/03/14 12:27:34;;;;;;;4.50;1.10;;;8.10;94.10;;;;;;5088417;28;20971;-89
2021/03/14 12:30:05;;;;;;;4.97;1.77;;;7.90;94.40;;;;;;5088232;28;20635;-90
2021/03/14 12:32:32;;;;;;;5.10;1.03;;;7.70;95.60;;;;;;5088359;28;20640;-90
2021/03/14 12:34:59;;;;;;;2.23;1.40;;;7.80;96.20;;;;;;5091374;28;20623;-90
2021/03/14 12:37:26;;;;;;;3.27;1.00;;;7.70;97.20;;;;;;5090391;28;20663;-89
2021/03/14 12:39:52;;;;;;;2.50;1.17;;;7.20;98.80;;;;;;5082309;28;20717;-88
2021/03/14 12:42:19;;;;;;;1.90;0.93;;;7.20;99.90;;;;;;5087460;28;20627;-89
2021/03/14 12:44:48;;;;;;;2.10;1.13;;;7.00;99.90;;;;;;5085281;28;20635;-88
2021/03/14 12:47:14;;;;;;;5.30;1.80;;;6.90;99.90;;;;;;5087372;28;20654;-90
2021/03/14 12:49:40;;;;;;;1.50;1.20;;;6.80;99.90;;;;;;5082886;28;20624;-88
2021/03/14 12:52:07;;;;;;;3.10;2.00;;;6.60;99.90;;;;;;5088575;28;20612;-87
2021/03/14 12:54:33;;;;;;;2.63;1.17;;;6.40;99.90;;;;;;5084328;28;20716;-87
2021/03/14 12:56:59;;;;;;;3.20;1.43;;;6.20;99.90;;;;;;5087109;28;21023;-89
2021/03/14 12:59:30;;;;;;;2.63;1.30;;;6.10;99.90;;;;;;5089206;28;21279;-87
2021/03/14 13:01:57;;;;;;;2.37;1.30;;;6.10;99.90;;;;;;5084618;28;20712;-87
2021/03/14 13:04:25;;;;;;;3.83;1.60;;;6.00;99.90;;;;;;5087923;28;20612;-88
2021/03/14 13:06:51;;;;;;;5.80;1.67;;;5.80;99.90;;;;;;5094183;28;20674;-87